sensor_id;sensor_type;location;lat;lon;timestamp;pressure;altitude;pressure_sealevel;temperature;humidity
57990;BME280;58373;51.824;5.564;2022-07-29T00:00:11;101641.09;;;16.86;60.05
57990;BME280;58373;51.824;5.564;2022-07-29T00:02:36;101642.72;;;16.87;60.14
57990;BME280;58373;51.824;5.564;2022-07-29T00:05:03;101639.91;;;16.98;60.37
57990;BME280;58373;51.824;5.564;2022-07-29T00:07:28;101635.53;;;16.89;60.18
57990;BME280;58373;51.824;5.564;2022-07-29T00:09:54;101638.53;;;16.94;59.99
57990;BME280;58373;51.824;5.564;2022-07-29T00:12:21;101634.56;;;16.90;60.16
57990;BME280;58373;51.824;5.564;2022-07-29T00:14:46;101625.59;;;16.93;60.21
57990;BME280;58373;51.824;5.564;2022-07-29T00:17:12;101620.88;;;16.96;60.38
57990;BME280;58373;51.824;5.564;2022-07-29T00:19:37;101617.59;;;16.94;60.24
57990;BME280;58373;51.824;5.564;2022-07-29T00:22:02;101613.53;;;16.82;60.29
57990;BME280;58373;51.824;5.564;2022-07-29T00:24:28;101627.53;;;16.91;60.90
57990;BME280;58373;51.824;5.564;2022-07-29T00:26:53;101619.59;;;16.83;60.75
57990;BME280;58373;51.824;5.564;2022-07-29T00:29:19;101615.25;;;16.91;60.47
57990;BME280;58373;51.824;5.564;2022-07-29T00:31:44;101612.38;;;16.85;61.18
57990;BME280;58373;51.824;5.564;2022-07-29T00:34:10;101612.63;;;16.91;60.63
57990;BME280;58373;51.824;5.564;2022-07-29T00:36:56;101607.31;;;16.83;61.22
57990;BME280;58373;51.824;5.564;2022-07-29T00:39:21;101605.81;;;16.81;61.11
57990;BME280;58373;51.824;5.564;2022-07-29T00:41:46;101598.31;;;16.86;60.91
57990;BME280;58373;51.824;5.564;2022-07-29T00:44:12;101601.09;;;16.84;61.57
57990;BME280;58373;51.824;5.564;2022-07-29T00:46:37;101602.81;;;16.76;61.60
57990;BME280;58373;51.824;5.564;2022-07-29T00:49:03;101605.81;;;16.81;60.65
57990;BME280;58373;51.824;5.564;2022-07-29T00:51:28;101611.47;;;16.76;61.43
57990;BME280;58373;51.824;5.564;2022-07-29T00:53:54;101601.97;;;16.75;61.80
57990;BME280;58373;51.824;5.564;2022-07-29T00:56:20;101605.53;;;16.74;61.10
57990;BME280;58373;51.824;5.564;2022-07-29T00:58:47;101606.25;;;16.76;61.59
57990;BME280;58373;51.824;5.564;2022-07-29T01:01:13;101594.13;;;16.75;61.67
57990;BME280;58373;51.824;5.564;2022-07-29T01:03:38;101582.34;;;16.79;61.60
57990;BME280;58373;51.824;5.564;2022-07-29T01:06:04;101593.47;;;16.63;61.58
57990;BME280;58373;51.824;5.564;2022-07-29T01:08:31;101587.09;;;16.66;61.35
57990;BME280;58373;51.824;5.564;2022-07-29T01:10:58;101596.44;;;16.78;61.12
57990;BME280;58373;51.824;5.564;2022-07-29T01:13:25;101594.78;;;16.77;61.90
57990;BME280;58373;51.824;5.564;2022-07-29T01:15:56;101602.94;;;16.74;61.67
57990;BME280;58373;51.824;5.564;2022-07-29T01:18:32;101603.31;;;16.79;61.94
57990;BME280;58373;51.824;5.564;2022-07-29T01:26:59;101597.69;;;16.74;62.21
57990;BME280;58373;51.824;5.564;2022-07-29T01:29:38;101593.44;;;16.73;61.98
57990;BME280;58373;51.824;5.564;2022-07-29T01:32:08;101614.94;;;16.77;61.90
57990;BME280;58373;51.824;5.564;2022-07-29T01:34:54;101626.22;;;16.77;61.96
57990;BME280;58373;51.824;5.564;2022-07-29T01:37:29;101628.19;;;16.65;63.75
57990;BME280;58373;51.824;5.564;2022-07-29T01:39:57;101635.34;;;16.73;62.68
57990;BME280;58373;51.824;5.564;2022-07-29T01:42:29;101626.81;;;16.71;62.95
57990;BME280;58373;51.824;5.564;2022-07-29T01:45:04;101631.63;;;16.66;62.11
57990;BME280;58373;51.824;5.564;2022-07-29T01:47:41;101633.47;;;16.56;62.32
57990;BME280;58373;51.824;5.564;2022-07-29T01:50:11;101623.03;;;16.46;62.89
57990;BME280;58373;51.824;5.564;2022-07-29T01:52:51;101637.59;;;16.58;62.11
57990;BME280;58373;51.824;5.564;2022-07-29T01:55:20;101616.69;;;16.49;62.70
57990;BME280;58373;51.824;5.564;2022-07-29T01:57:48;101612.50;;;16.56;62.47
57990;BME280;58373;51.824;5.564;2022-07-29T02:00:15;101606.22;;;16.49;63.32
57990;BME280;58373;51.824;5.564;2022-07-29T02:02:43;101596.00;;;16.45;63.20
57990;BME280;58373;51.824;5.564;2022-07-29T02:05:10;101605.13;;;16.41;63.65
57990;BME280;58373;51.824;5.564;2022-07-29T02:07:40;101597.91;;;16.53;62.91
57990;BME280;58373;51.824;5.564;2022-07-29T02:10:07;101587.09;;;16.38;63.95
57990;BME280;58373;51.824;5.564;2022-07-29T02:12:34;101583.06;;;16.44;63.83
57990;BME280;58373;51.824;5.564;2022-07-29T02:15:01;101580.88;;;16.39;63.86
57990;BME280;58373;51.824;5.564;2022-07-29T02:17:32;101582.25;;;16.43;64.25
57990;BME280;58373;51.824;5.564;2022-07-29T02:20:00;101588.31;;;16.44;64.76
57990;BME280;58373;51.824;5.564;2022-07-29T02:22:29;101578.16;;;16.31;64.88
57990;BME280;58373;51.824;5.564;2022-07-29T02:24:55;101574.16;;;16.37;66.01
57990;BME280;58373;51.824;5.564;2022-07-29T02:27:22;101569.00;;;16.17;66.59
57990;BME280;58373;51.824;5.564;2022-07-29T02:29:49;101573.38;;;16.17;67.92
57990;BME280;58373;51.824;5.564;2022-07-29T02:32:16;101565.53;;;16.17;67.38
57990;BME280;58373;51.824;5.564;2022-07-29T02:34:43;101560.59;;;16.14;68.08
57990;BME280;58373;51.824;5.564;2022-07-29T02:37:10;101554.00;;;16.10;68.72
57990;BME280;58373;51.824;5.564;2022-07-29T02:39:37;101560.69;;;16.22;67.98
57990;BME280;58373;51.824;5.564;2022-07-29T02:42:07;101558.13;;;16.12;69.22
57990;BME280;58373;51.824;5.564;2022-07-29T02:44:33;101556.09;;;16.06;69.83
57990;BME280;58373;51.824;5.564;2022-07-29T02:55:34;101538.88;;;16.04;69.41
57990;BME280;58373;51.824;5.564;2022-07-29T02:58:24;101545.47;;;16.08;69.56
57990;BME280;58373;51.824;5.564;2022-07-29T03:00:55;101532.19;;;15.82;70.85
57990;BME280;58373;51.824;5.564;2022-07-29T03:03:25;101535.91;;;15.89;70.80
57990;BME280;58373;51.824;5.564;2022-07-29T03:05:55;101523.53;;;15.81;70.44
57990;BME280;58373;51.824;5.564;2022-07-29T03:08:22;101535.34;;;15.85;70.50
57990;BME280;58373;51.824;5.564;2022-07-29T03:10:48;101515.41;;;15.84;71.52
57990;BME280;58373;51.824;5.564;2022-07-29T03:13:14;101514.03;;;15.80;71.05
57990;BME280;58373;51.824;5.564;2022-07-29T03:15:42;101523.25;;;15.75;71.56
57990;BME280;58373;51.824;5.564;2022-07-29T03:18:09;101515.28;;;15.76;71.87
57990;BME280;58373;51.824;5.564;2022-07-29T03:20:35;101527.69;;;15.74;71.26
57990;BME280;58373;51.824;5.564;2022-07-29T03:23:00;101513.94;;;15.72;70.92
57990;BME280;58373;51.824;5.564;2022-07-29T03:25:25;101518.84;;;15.75;70.72
57990;BME280;58373;51.824;5.564;2022-07-29T03:27:52;101525.75;;;15.57;72.35
57990;BME280;58373;51.824;5.564;2022-07-29T03:30:17;101533.47;;;15.49;72.07
57990;BME280;58373;51.824;5.564;2022-07-29T03:32:43;101532.09;;;15.45;71.95
57990;BME280;58373;51.824;5.564;2022-07-29T03:35:09;101526.19;;;15.43;72.30
57990;BME280;58373;51.824;5.564;2022-07-29T03:37:34;101513.41;;;15.39;72.83
57990;BME280;58373;51.824;5.564;2022-07-29T03:40:03;101515.84;;;15.51;71.99
57990;BME280;58373;51.824;5.564;2022-07-29T03:42:32;101511.97;;;15.74;69.69
57990;BME280;58373;51.824;5.564;2022-07-29T03:45:03;101503.63;;;15.41;72.09
57990;BME280;58373;51.824;5.564;2022-07-29T03:47:31;101495.22;;;15.48;72.29
57990;BME280;58373;51.824;5.564;2022-07-29T03:50:05;101509.56;;;15.44;71.54
57990;BME280;58373;51.824;5.564;2022-07-29T03:52:31;101508.44;;;15.36;71.77
57990;BME280;58373;51.824;5.564;2022-07-29T03:54:57;101517.38;;;15.34;71.94
57990;BME280;58373;51.824;5.564;2022-07-29T03:57:24;101518.38;;;15.43;71.44
57990;BME280;58373;51.824;5.564;2022-07-29T03:59:53;101515.75;;;15.43;72.21
57990;BME280;58373;51.824;5.564;2022-07-29T04:02:18;101518.38;;;15.43;70.95
57990;BME280;58373;51.824;5.564;2022-07-29T04:04:45;101524.94;;;15.47;70.85
57990;BME280;58373;51.824;5.564;2022-07-29T04:07:12;101537.03;;;15.48;70.45
57990;BME280;58373;51.824;5.564;2022-07-29T04:09:37;101544.22;;;15.46;70.75
57990;BME280;58373;51.824;5.564;2022-07-29T04:12:03;101536.09;;;15.29;71.52
57990;BME280;58373;51.824;5.564;2022-07-29T04:14:30;101539.53;;;15.39;70.84
57990;BME280;58373;51.824;5.564;2022-07-29T04:16:56;101536.50;;;15.34;69.93
57990;BME280;58373;51.824;5.564;2022-07-29T04:19:21;101542.28;;;15.38;70.46
57990;BME280;58373;51.824;5.564;2022-07-29T04:21:47;101548.22;;;15.11;71.33
57990;BME280;58373;51.824;5.564;2022-07-29T04:24:13;101546.44;;;15.21;71.50
57990;BME280;58373;51.824;5.564;2022-07-29T04:26:38;101546.97;;;15.15;71.45
57990;BME280;58373;51.824;5.564;2022-07-29T04:29:04;101544.38;;;15.15;71.00
57990;BME280;58373;51.824;5.564;2022-07-29T04:31:29;101546.03;;;15.26;71.27
57990;BME280;58373;51.824;5.564;2022-07-29T04:33:54;101550.69;;;15.12;71.34
57990;BME280;58373;51.824;5.564;2022-07-29T04:36:20;101549.03;;;15.21;71.44
57990;BME280;58373;51.824;5.564;2022-07-29T04:38:45;101550.00;;;15.20;71.60
57990;BME280;58373;51.824;5.564;2022-07-29T04:41:10;101546.97;;;15.15;71.88
57990;BME280;58373;51.824;5.564;2022-07-29T04:43:36;101550.81;;;15.11;72.23
57990;BME280;58373;51.824;5.564;2022-07-29T04:46:03;101554.09;;;15.13;71.80
57990;BME280;58373;51.824;5.564;2022-07-29T04:48:28;101559.06;;;15.16;72.08
57990;BME280;58373;51.824;5.564;2022-07-29T04:50:54;101558.25;;;15.06;72.21
57990;BME280;58373;51.824;5.564;2022-07-29T04:53:19;101558.94;;;15.18;72.42
57990;BME280;58373;51.824;5.564;2022-07-29T04:55:45;101556.88;;;15.21;72.42
57990;BME280;58373;51.824;5.564;2022-07-29T04:58:11;101548.06;;;15.22;72.43
57990;BME280;58373;51.824;5.564;2022-07-29T05:00:36;101552.47;;;15.12;72.77
57990;BME280;58373;51.824;5.564;2022-07-29T05:03:02;101556.31;;;15.08;72.57
57990;BME280;58373;51.824;5.564;2022-07-29T05:05:28;101549.72;;;15.04;72.53
57990;BME280;58373;51.824;5.564;2022-07-29T05:07:53;101543.09;;;15.00;73.05
57990;BME280;58373;51.824;5.564;2022-07-29T05:10:19;101549.19;;;15.10;72.88
57990;BME280;58373;51.824;5.564;2022-07-29T05:12:44;101548.34;;;15.00;73.58
57990;BME280;58373;51.824;5.564;2022-07-29T05:15:10;101552.19;;;15.05;73.37
57990;BME280;58373;51.824;5.564;2022-07-29T05:17:35;101561.84;;;15.14;72.78
57990;BME280;58373;51.824;5.564;2022-07-29T05:20:01;101564.84;;;15.00;73.41
57990;BME280;58373;51.824;5.564;2022-07-29T05:22:26;101565.81;;;15.09;72.62
57990;BME280;58373;51.824;5.564;2022-07-29T05:24:51;101565.66;;;15.01;72.89
57990;BME280;58373;51.824;5.564;2022-07-29T05:27:17;101572.25;;;15.05;73.75
57990;BME280;58373;51.824;5.564;2022-07-29T05:29:42;101581.34;;;15.10;73.40
57990;BME280;58373;51.824;5.564;2022-07-29T05:32:08;101586.84;;;15.07;73.20
57990;BME280;58373;51.824;5.564;2022-07-29T05:34:33;101589.59;;;15.06;73.00
57990;BME280;58373;51.824;5.564;2022-07-29T05:36:59;101585.59;;;15.11;72.62
57990;BME280;58373;51.824;5.564;2022-07-29T05:39:24;101590.00;;;15.11;73.94
57990;BME280;58373;51.824;5.564;2022-07-29T05:41:50;101598.94;;;15.18;73.15
57990;BME280;58373;51.824;5.564;2022-07-29T05:44:15;101594.28;;;15.12;72.91
57990;BME280;58373;51.824;5.564;2022-07-29T05:46:41;101601.97;;;15.04;73.52
57990;BME280;58373;51.824;5.564;2022-07-29T05:49:06;101600.59;;;15.09;73.58
57990;BME280;58373;51.824;5.564;2022-07-29T05:51:35;101601.84;;;15.15;72.82
57990;BME280;58373;51.824;5.564;2022-07-29T05:54:00;101599.41;;;15.43;71.80
57990;BME280;58373;51.824;5.564;2022-07-29T05:56:26;101600.59;;;15.19;71.70
57990;BME280;58373;51.824;5.564;2022-07-29T05:58:52;101595.38;;;15.29;71.58
57990;BME280;58373;51.824;5.564;2022-07-29T06:01:17;101598.41;;;15.24;72.71
57990;BME280;58373;51.824;5.564;2022-07-29T06:03:43;101599.25;;;15.34;71.42
57990;BME280;58373;51.824;5.564;2022-07-29T06:06:08;101602.16;;;15.31;71.88
57990;BME280;58373;51.824;5.564;2022-07-29T06:08:34;101595.66;;;15.35;72.14
57990;BME280;58373;51.824;5.564;2022-07-29T06:11:01;101601.88;;;15.44;72.08
57990;BME280;58373;51.824;5.564;2022-07-29T06:13:27;101606.13;;;15.35;72.36
57990;BME280;58373;51.824;5.564;2022-07-29T06:15:52;101604.47;;;15.44;72.26
57990;BME280;58373;51.824;5.564;2022-07-29T06:18:17;101598.13;;;15.47;73.30
57990;BME280;58373;51.824;5.564;2022-07-29T06:20:43;101609.97;;;15.60;71.92
57990;BME280;58373;51.824;5.564;2022-07-29T06:23:08;101612.44;;;15.62;71.96
57990;BME280;58373;51.824;5.564;2022-07-29T06:25:35;101598.44;;;15.63;72.01
57990;BME280;58373;51.824;5.564;2022-07-29T06:28:02;101601.72;;;15.65;71.81
57990;BME280;58373;51.824;5.564;2022-07-29T06:30:27;101599.81;;;15.67;71.49
57990;BME280;58373;51.824;5.564;2022-07-29T06:32:53;101610.53;;;15.74;71.78
57990;BME280;58373;51.824;5.564;2022-07-29T06:35:19;101603.94;;;15.79;71.15
57990;BME280;58373;51.824;5.564;2022-07-29T06:37:45;101610.81;;;15.80;71.68
57990;BME280;58373;51.824;5.564;2022-07-29T06:40:10;101616.72;;;15.82;70.47
57990;BME280;58373;51.824;5.564;2022-07-29T06:42:54;101610.53;;;15.74;70.72
57990;BME280;58373;51.824;5.564;2022-07-29T06:45:20;101617.41;;;15.84;69.95
57990;BME280;58373;51.824;5.564;2022-07-29T06:47:45;101602.28;;;15.78;70.85
57990;BME280;58373;51.824;5.564;2022-07-29T06:50:11;101605.41;;;15.91;70.43
57990;BME280;58373;51.824;5.564;2022-07-29T06:52:38;101610.50;;;16.03;70.16
57990;BME280;58373;51.824;5.564;2022-07-29T06:55:04;101598.94;;;15.96;70.09
57990;BME280;58373;51.824;5.564;2022-07-29T06:57:30;101605.25;;;16.03;70.72
57990;BME280;58373;51.824;5.564;2022-07-29T06:59:58;101599.19;;;16.12;71.02
57990;BME280;58373;51.824;5.564;2022-07-29T07:02:23;101588.72;;;16.12;70.38
57990;BME280;58373;51.824;5.564;2022-07-29T07:04:48;101590.75;;;16.18;68.64
57990;BME280;58373;51.824;5.564;2022-07-29T07:07:14;101595.81;;;16.29;69.79
57990;BME280;58373;51.824;5.564;2022-07-29T07:09:39;101590.13;;;16.06;69.37
57990;BME280;58373;51.824;5.564;2022-07-29T07:12:05;101601.22;;;16.18;70.06
57990;BME280;58373;51.824;5.564;2022-07-29T07:14:31;101598.63;;;16.18;69.78
57990;BME280;58373;51.824;5.564;2022-07-29T07:16:56;101609.59;;;16.31;70.01
57990;BME280;58373;51.824;5.564;2022-07-29T07:19:22;101600.94;;;16.21;70.30
57990;BME280;58373;51.824;5.564;2022-07-29T07:21:47;101592.38;;;16.29;70.00
57990;BME280;58373;51.824;5.564;2022-07-29T07:24:12;101613.38;;;16.46;69.45
57990;BME280;58373;51.824;5.564;2022-07-29T07:26:38;101608.09;;;16.29;69.87
57990;BME280;58373;51.824;5.564;2022-07-29T07:29:05;101611.81;;;16.26;69.50
57990;BME280;58373;51.824;5.564;2022-07-29T07:31:30;101618.63;;;16.46;71.08
57990;BME280;58373;51.824;5.564;2022-07-29T07:33:56;101613.81;;;16.42;69.95
57990;BME280;58373;51.824;5.564;2022-07-29T07:36:23;101616.41;;;16.52;69.40
57990;BME280;58373;51.824;5.564;2022-07-29T07:38:48;101617.75;;;16.56;69.68
57990;BME280;58373;51.824;5.564;2022-07-29T07:41:14;101607.81;;;16.59;70.10
57990;BME280;58373;51.824;5.564;2022-07-29T07:43:39;101601.16;;;16.65;69.40
57990;BME280;58373;51.824;5.564;2022-07-29T07:46:05;101595.16;;;16.55;69.72
57990;BME280;58373;51.824;5.564;2022-07-29T07:48:30;101594.19;;;16.56;71.36
57990;BME280;58373;51.824;5.564;2022-07-29T07:50:56;101604.22;;;16.60;70.28
57990;BME280;58373;51.824;5.564;2022-07-29T07:53:21;101603.09;;;16.63;70.45
57990;BME280;58373;51.824;5.564;2022-07-29T07:55:47;101608.47;;;16.71;69.85
57990;BME280;58373;51.824;5.564;2022-07-29T07:58:12;101610.19;;;16.80;69.52
57990;BME280;58373;51.824;5.564;2022-07-29T08:00:37;101602.25;;;16.72;69.52
57990;BME280;58373;51.824;5.564;2022-07-29T08:03:03;101604.19;;;16.70;69.58
57990;BME280;58373;51.824;5.564;2022-07-29T08:05:29;101597.66;;;16.84;68.67
57990;BME280;58373;51.824;5.564;2022-07-29T08:07:54;101589.44;;;16.69;68.94
57990;BME280;58373;51.824;5.564;2022-07-29T08:10:20;101600.41;;;16.82;69.30
57990;BME280;58373;51.824;5.564;2022-07-29T08:13:05;101596.81;;;16.83;69.10
57990;BME280;58373;51.824;5.564;2022-07-29T08:15:31;101592.78;;;16.89;68.83
57990;BME280;58373;51.824;5.564;2022-07-29T08:17:57;101609.34;;;16.89;69.52
57990;BME280;58373;51.824;5.564;2022-07-29T08:20:22;101601.47;;;16.89;69.84
57990;BME280;58373;51.824;5.564;2022-07-29T08:22:48;101601.09;;;16.84;69.58
57990;BME280;58373;51.824;5.564;2022-07-29T08:25:13;101608.69;;;17.05;70.07
57990;BME280;58373;51.824;5.564;2022-07-29T08:27:38;101606.28;;;17.12;69.37
57990;BME280;58373;51.824;5.564;2022-07-29T08:30:04;101611.25;;;17.15;69.38
57990;BME280;58373;51.824;5.564;2022-07-29T08:32:30;101598.88;;;17.25;68.66
57990;BME280;58373;51.824;5.564;2022-07-29T08:34:56;101623.38;;;17.34;68.59
57990;BME280;58373;51.824;5.564;2022-07-29T08:37:22;101625.19;;;17.33;68.29
57990;BME280;58373;51.824;5.564;2022-07-29T08:39:47;101624.03;;;17.53;67.73
57990;BME280;58373;51.824;5.564;2022-07-29T08:42:12;101631.38;;;17.68;67.75
57990;BME280;58373;51.824;5.564;2022-07-29T08:44:38;101625.81;;;17.71;67.38
57990;BME280;58373;51.824;5.564;2022-07-29T08:47:03;101628.41;;;17.63;67.75
57990;BME280;58373;51.824;5.564;2022-07-29T08:49:30;101626.75;;;17.62;66.58
57990;BME280;58373;51.824;5.564;2022-07-29T08:51:57;101633.81;;;17.79;65.96
57990;BME280;58373;51.824;5.564;2022-07-29T08:54:23;101613.31;;;17.83;66.45
57990;BME280;58373;51.824;5.564;2022-07-29T08:56:49;101625.97;;;17.87;66.79
57990;BME280;58373;51.824;5.564;2022-07-29T08:59:16;101627.75;;;18.04;65.14
57990;BME280;58373;51.824;5.564;2022-07-29T09:01:45;101624.13;;;18.05;64.48
57990;BME280;58373;51.824;5.564;2022-07-29T09:04:12;101609.91;;;18.16;65.54
57990;BME280;58373;51.824;5.564;2022-07-29T09:06:43;101620.56;;;18.07;64.79
57990;BME280;58373;51.824;5.564;2022-07-29T09:09:08;101616.00;;;18.17;64.57
57990;BME280;58373;51.824;5.564;2022-07-29T09:11:34;101617.03;;;18.24;64.57
57990;BME280;58373;51.824;5.564;2022-07-29T09:14:00;101624.91;;;18.24;64.42
57990;BME280;58373;51.824;5.564;2022-07-29T09:16:26;101610.84;;;18.33;64.14
57990;BME280;58373;51.824;5.564;2022-07-29T09:18:51;101610.19;;;18.39;63.39
57990;BME280;58373;51.824;5.564;2022-07-29T09:21:17;101607.50;;;18.57;63.92
57990;BME280;58373;51.824;5.564;2022-07-29T09:24:11;101613.66;;;18.74;64.55
57990;BME280;58373;51.824;5.564;2022-07-29T09:26:40;101612.06;;;18.89;63.73
57990;BME280;58373;51.824;5.564;2022-07-29T09:29:14;101614.75;;;19.14;63.40
57990;BME280;58373;51.824;5.564;2022-07-29T09:31:46;101609.19;;;19.33;62.43
57990;BME280;58373;51.824;5.564;2022-07-29T09:34:14;101602.28;;;19.48;62.51
57990;BME280;58373;51.824;5.564;2022-07-29T09:36:45;101613.78;;;19.55;61.86
57990;BME280;58373;51.824;5.564;2022-07-29T09:39:12;101613.34;;;19.68;61.54
57990;BME280;58373;51.824;5.564;2022-07-29T09:41:52;101607.56;;;19.81;62.60
57990;BME280;58373;51.824;5.564;2022-07-29T09:44:18;101608.22;;;19.91;59.48
57990;BME280;58373;51.824;5.564;2022-07-29T09:47:01;101617.06;;;20.06;60.82
57990;BME280;58373;51.824;5.564;2022-07-29T09:49:32;101612.38;;;20.33;61.15
57990;BME280;58373;51.824;5.564;2022-07-29T09:52:08;101617.78;;;20.39;60.03
57990;BME280;58373;51.824;5.564;2022-07-29T09:54:36;101616.59;;;20.58;60.80
57990;BME280;58373;51.824;5.564;2022-07-29T09:57:09;101603.41;;;20.58;57.58
57990;BME280;58373;51.824;5.564;2022-07-29T09:59:38;101614.88;;;20.74;57.15
57990;BME280;58373;51.824;5.564;2022-07-29T10:02:14;101617.06;;;20.93;58.46
57990;BME280;58373;51.824;5.564;2022-07-29T10:04:42;101612.75;;;21.00;56.83
57990;BME280;58373;51.824;5.564;2022-07-29T10:07:08;101617.88;;;21.25;56.09
57990;BME280;58373;51.824;5.564;2022-07-29T10:09:34;101610.34;;;21.13;54.07
57990;BME280;58373;51.824;5.564;2022-07-29T10:12:08;101622.75;;;21.36;56.54
57990;BME280;58373;51.824;5.564;2022-07-29T10:14:35;101627.25;;;21.50;54.93
57990;BME280;58373;51.824;5.564;2022-07-29T10:17:02;101623.69;;;21.43;53.63
57990;BME280;58373;51.824;5.564;2022-07-29T10:19:29;101621.63;;;21.53;52.85
57990;BME280;58373;51.824;5.564;2022-07-29T10:21:59;101621.63;;;21.53;52.94
57990;BME280;58373;51.824;5.564;2022-07-29T10:24:28;101627.50;;;21.63;53.38
57990;BME280;58373;51.824;5.564;2022-07-29T10:27:01;101626.22;;;21.59;52.25
57990;BME280;58373;51.824;5.564;2022-07-29T10:29:27;101619.22;;;21.66;51.89
57990;BME280;58373;51.824;5.564;2022-07-29T10:40:55;101611.53;;;22.09;51.76
57990;BME280;58373;51.824;5.564;2022-07-29T10:43:43;101610.81;;;22.45;50.83
57990;BME280;58373;51.824;5.564;2022-07-29T10:46:10;101609.19;;;22.44;49.14
57990;BME280;58373;51.824;5.564;2022-07-29T10:52:06;101609.88;;;22.67;50.73
57990;BME280;58373;51.824;5.564;2022-07-29T10:57:14;101612.22;;;22.92;50.96
57990;BME280;58373;51.824;5.564;2022-07-29T10:59:41;101614.03;;;22.76;48.11
57990;BME280;58373;51.824;5.564;2022-07-29T11:05:04;101613.19;;;23.05;49.63
57990;BME280;58373;51.824;5.564;2022-07-29T11:07:31;101609.59;;;23.13;49.88
57990;BME280;58373;51.824;5.564;2022-07-29T11:17:28;101617.28;;;23.08;46.74
57990;BME280;58373;51.824;5.564;2022-07-29T11:22:57;101617.91;;;23.31;47.46
57990;BME280;58373;51.824;5.564;2022-07-29T11:25:22;101611.44;;;23.34;49.75
57990;BME280;58373;51.824;5.564;2022-07-29T11:27:48;101610.84;;;23.17;47.07
57990;BME280;58373;51.824;5.564;2022-07-29T11:30:14;101604.81;;;23.23;47.21
57990;BME280;58373;51.824;5.564;2022-07-29T11:32:42;101618.66;;;23.47;46.42
57990;BME280;58373;51.824;5.564;2022-07-29T11:35:21;101613.22;;;23.55;47.29
57990;BME280;58373;51.824;5.564;2022-07-29T11:38:23;101616.09;;;23.81;48.34
57990;BME280;58373;51.824;5.564;2022-07-29T11:43:50;101603.19;;;23.72;46.69
57990;BME280;58373;51.824;5.564;2022-07-29T11:49:07;101608.56;;;23.57;45.43
57990;BME280;58373;51.824;5.564;2022-07-29T11:51:34;101603.06;;;23.58;45.50
57990;BME280;58373;51.824;5.564;2022-07-29T11:54:01;101600.91;;;23.97;46.34
57990;BME280;58373;51.824;5.564;2022-07-29T11:56:31;101608.72;;;24.05;45.63
57990;BME280;58373;51.824;5.564;2022-07-29T11:59:07;101607.63;;;24.27;46.12
57990;BME280;58373;51.824;5.564;2022-07-29T12:01:34;101605.19;;;24.32;47.73
57990;BME280;58373;51.824;5.564;2022-07-29T12:04:06;101606.28;;;24.10;45.28
57990;BME280;58373;51.824;5.564;2022-07-29T12:06:35;101610.13;;;24.35;46.61
57990;BME280;58373;51.824;5.564;2022-07-29T12:09:06;101607.75;;;24.54;43.99
57990;BME280;58373;51.824;5.564;2022-07-29T12:11:32;101610.50;;;24.32;43.61
57990;BME280;58373;51.824;5.564;2022-07-29T12:13:57;101607.19;;;24.24;43.47
57990;BME280;58373;51.824;5.564;2022-07-29T12:16:34;101603.66;;;24.45;44.95
57990;BME280;58373;51.824;5.564;2022-07-29T12:19:01;101602.31;;;24.27;43.90
57990;BME280;58373;51.824;5.564;2022-07-29T12:21:46;101602.03;;;24.50;44.39
57990;BME280;58373;51.824;5.564;2022-07-29T12:24:13;101604.09;;;24.55;46.08
57990;BME280;58373;51.824;5.564;2022-07-29T12:26:58;101607.75;;;24.54;45.00
57990;BME280;58373;51.824;5.564;2022-07-29T12:29:24;101608.16;;;24.51;43.28
57990;BME280;58373;51.824;5.564;2022-07-29T12:31:53;101613.84;;;24.48;44.07
57990;BME280;58373;51.824;5.564;2022-07-29T12:34:22;101617.50;;;24.47;44.17
57990;BME280;58373;51.824;5.564;2022-07-29T12:36:48;101610.75;;;24.38;43.77
57990;BME280;58373;51.824;5.564;2022-07-29T12:39:15;101610.28;;;24.75;44.43
57990;BME280;58373;51.824;5.564;2022-07-29T12:41:42;101601.63;;;24.60;43.22
57990;BME280;58373;51.824;5.564;2022-07-29T12:44:08;101601.72;;;24.73;44.03
57990;BME280;58373;51.824;5.564;2022-07-29T12:46:36;101602.50;;;24.60;43.96
57990;BME280;58373;51.824;5.564;2022-07-29T12:49:02;101607.03;;;24.86;43.35
57990;BME280;58373;51.824;5.564;2022-07-29T12:51:39;101603.78;;;24.84;45.63
57990;BME280;58373;51.824;5.564;2022-07-29T12:54:10;101594.38;;;24.88;43.68
57990;BME280;58373;51.824;5.564;2022-07-29T12:56:40;101601.81;;;25.13;45.08
57990;BME280;58373;51.824;5.564;2022-07-29T12:59:16;101602.41;;;25.08;44.19
57990;BME280;58373;51.824;5.564;2022-07-29T13:01:43;101596.44;;;24.93;43.50
57990;BME280;58373;51.824;5.564;2022-07-29T13:04:09;101599.28;;;24.78;42.65
57990;BME280;58373;51.824;5.564;2022-07-29T13:06:41;101600.13;;;24.99;43.60
57990;BME280;58373;51.824;5.564;2022-07-29T13:09:19;101597.25;;;24.94;43.40
57990;BME280;58373;51.824;5.564;2022-07-29T13:11:50;101595.19;;;24.82;43.47
57990;BME280;58373;51.824;5.564;2022-07-29T13:14:37;101591.19;;;25.13;44.27
57990;BME280;58373;51.824;5.564;2022-07-29T13:22:06;101592.44;;;25.43;43.39
57990;BME280;58373;51.824;5.564;2022-07-29T13:24:31;101589.78;;;25.30;42.53
57990;BME280;58373;51.824;5.564;2022-07-29T13:26:57;101591.84;;;25.41;44.12
57990;BME280;58373;51.824;5.564;2022-07-29T13:29:22;101596.31;;;25.61;44.48
57990;BME280;58373;51.824;5.564;2022-07-29T13:31:48;101597.13;;;25.55;43.99
57990;BME280;58373;51.824;5.564;2022-07-29T13:34:13;101598.34;;;25.39;42.86
57990;BME280;58373;51.824;5.564;2022-07-29T13:36:39;101592.84;;;25.27;42.48
57990;BME280;58373;51.824;5.564;2022-07-29T13:39:04;101593.25;;;25.51;43.76
57990;BME280;58373;51.824;5.564;2022-07-29T13:41:29;101592.84;;;25.54;41.81
57990;BME280;58373;51.824;5.564;2022-07-29T13:43:55;101584.66;;;25.62;42.44
57990;BME280;58373;51.824;5.564;2022-07-29T13:46:20;101588.75;;;25.64;42.33